Karditsa, Greece
Current Conditions -  °F | °C
As of 8:50 PM on Thursday 23 Oct 2014 (Local Time) from LGLR Reporting Station
Few Clouds Few Clouds  
Wind Chill: 12°   Ceiling: Unl
Heat Index: 12°   Visibility: 6mi
Dew Point:   Wind: 12mph
Humidity: 58%   Direction: 210°SSW
Pressure: 29.71"   Gusts: NA
Location:  39.37°N, 21.92°E
Report Text: LGLR 231750Z 21010KT 9999 FEW035 12/04 Q1006 RMK FEW080 BLU
Loading
Personal Weather Stations






























Interactive Weather Map
Tropical Storm Tracking
New forecast layout! Learn more

10-Day Weather Forecast

Advertisements
Track Severe Weather on mobile